Time;durP1;ratioP1;P1;durP2;ratioP2;P2;SDS_P1;SDS_P2;PMS_P1;PMS_P2;Temp;Humidity;BMP_temperature;BMP_pressure;BME280_temperature;BME280_humidity;BME280_pressure;Samples;Min_cycle;Max_cycle;Signal;HPM_P1;HPM_P2
2021/04/14 00:00:14;;;;;;;25.03;16.33;;;;;;;10.70;70.49;99265.92;367911;108;1962989;-73
2021/04/14 00:01:19;;;;;;;25.36;16.54;;;;;;;10.78;70.41;99265.66;345340;109;1964975;-73
2021/04/14 00:02:25;;;;;;;25.22;16.58;;;;;;;10.85;70.16;99262.94;366702;108;1962019;-72
2021/04/14 00:03:32;;;;;;;25.16;16.87;;;;;;;10.91;69.96;99263.94;367292;107;1962058;-72
2021/04/14 00:04:38;;;;;;;23.99;15.21;;;;;;;10.96;69.86;99264.94;367597;108;1964051;-73
2021/04/14 00:05:44;;;;;;;24.87;16.91;;;;;;;11.04;69.49;99260.32;318525;108;2829954;-72
2021/04/14 00:06:52;;;;;;;25.48;17.72;;;;;;;11.05;69.25;99268.20;354405;108;1964050;-73
2021/04/14 00:07:58;;;;;;;26.75;18.56;;;;;;;11.07;69.02;99262.58;366714;109;1962049;-73
2021/04/14 00:09:04;;;;;;;24.91;17.82;;;;;;;11.03;68.82;99262.17;341731;109;2336270;-72
2021/04/14 00:10:13;;;;;;;27.04;19.39;;;;;;;10.87;68.84;99251.89;354059;113;1962003;-73
2021/04/14 00:11:20;;;;;;;25.09;18.35;;;;;;;10.87;68.91;99271.63;309021;113;2776047;-73
2021/04/14 00:12:25;;;;;;;28.15;20.09;;;;;;;10.82;68.96;99265.23;356216;112;1961989;-73
2021/04/14 00:13:40;;;;;;;31.25;20.81;;;;;;;10.73;69.27;99267.36;363624;109;1962025;-73
2021/04/14 00:14:41;;;;;;;29.24;19.75;;;;;;;10.68;69.38;99268.00;366821;110;1961938;-73
2021/04/14 00:15:50;;;;;;;32.34;23.03;;;;;;;10.63;69.40;99264.30;362250;109;1961791;-71
2021/04/14 00:16:58;;;;;;;29.06;20.77;;;;;;;10.58;69.61;99266.82;363818;110;1961930;-73
2021/04/14 00:18:05;;;;;;;33.37;22.58;;;;;;;10.54;69.64;99272.66;342195;109;1962008;-71
2021/04/14 00:19:11;;;;;;;32.08;21.31;;;;;;;10.50;69.84;99268.72;362935;109;1961940;-72
2021/04/14 00:20:18;;;;;;;31.14;20.98;;;;;;;10.49;69.72;99268.95;335132;109;2493018;-74
2021/04/14 00:21:25;;;;;;;32.36;21.32;;;;;;;10.44;70.03;99266.88;363112;109;1962000;-72
2021/04/14 00:22:32;;;;;;;31.65;19.96;;;;;;;10.40;70.09;99265.67;364042;109;1964029;-73
2021/04/14 00:23:38;;;;;;;26.59;17.29;;;;;;;10.34;70.55;99270.03;314783;109;2846961;-72
2021/04/14 00:24:43;;;;;;;27.39;17.02;;;;;;;10.34;70.88;99263.81;339919;110;1963961;-72
2021/04/14 00:25:50;;;;;;;29.42;16.62;;;;;;;10.36;70.84;99272.53;349218;110;1962028;-71
2021/04/14 00:26:57;;;;;;;27.35;15.95;;;;;;;10.41;70.87;99270.02;363818;109;1961942;-71
2021/04/14 00:28:02;;;;;;;26.37;16.93;;;;;;;10.48;70.83;99265.42;365995;108;1961992;-72
2021/04/14 00:29:09;;;;;;;21.65;14.95;;;;;;;10.53;70.69;99267.45;334054;109;2500927;-72
2021/04/14 00:30:15;;;;;;;23.86;16.03;;;;;;;10.62;70.63;99263.48;363519;110;1961985;-72
2021/04/14 00:31:37;;;;;;;25.88;17.03;;;;;;;10.68;69.90;99265.30;365723;109;1962004;-72
2021/04/14 00:32:42;;;;;;;24.12;16.58;;;;;;;10.76;70.01;99264.22;364125;109;1962021;-71
2021/04/14 00:33:48;;;;;;;25.96;16.68;;;;;;;10.85;69.78;99265.64;355192;110;2869001;-74
2021/04/14 00:34:54;;;;;;;28.77;17.82;;;;;;;10.90;69.46;99267.66;332526;110;1961922;-72
2021/04/14 00:35:59;;;;;;;28.51;17.61;;;;;;;10.93;69.19;99269.96;342148;112;1962068;-72
2021/04/14 00:37:04;;;;;;;23.94;17.31;;;;;;;10.92;69.14;99266.41;364429;109;1961908;-72
2021/04/14 00:38:11;;;;;;;25.82;16.93;;;;;;;10.92;69.06;99262.88;366166;110;1961851;-72
2021/04/14 00:39:22;;;;;;;23.81;15.87;;;;;;;10.90;68.89;99259.56;313998;109;2840003;-72
2021/04/14 00:40:32;;;;;;;26.24;16.73;;;;;;;10.85;69.01;99268.34;353475;109;1962018;-72
2021/04/14 00:41:38;;;;;;;23.55;15.71;;;;;;;10.82;68.86;99257.94;352972;110;2928971;-72
2021/04/14 00:42:43;;;;;;;25.36;17.33;;;;;;;10.77;68.92;99252.39;350254;108;1961971;-74
2021/04/14 00:43:49;;;;;;;23.39;17.74;;;;;;;10.72;69.00;99265.72;369886;107;1962988;-71
2021/04/14 00:44:54;;;;;;;32.57;18.28;;;;;;;10.64;69.30;99261.39;367538;108;1962909;-73
2021/04/14 00:46:00;;;;;;;25.98;18.76;;;;;;;10.59;69.42;99258.52;366774;108;1963965;-73
2021/04/14 00:47:06;;;;;;;28.09;17.91;;;;;;;10.53;69.45;99257.51;366982;108;1962003;-72
2021/04/14 00:48:12;;;;;;;27.62;17.79;;;;;;;10.48;69.77;99261.90;370540;107;1961957;-72
2021/04/14 00:49:17;;;;;;;24.89;16.37;;;;;;;10.45;69.76;99262.30;315088;108;2114733;-73
2021/04/14 00:50:26;;;;;;;24.21;17.34;;;;;;;10.41;69.95;99263.80;364314;109;1962016;-72
2021/04/14 00:51:34;;;;;;;25.86;17.59;;;;;;;10.39;70.30;99253.20;345648;109;1962019;-72
2021/04/14 00:52:40;;;;;;;23.28;16.14;;;;;;;9.73;70.21;99162.50;368080;108;1961977;-72
2021/04/14 00:53:46;;;;;;;20.87;13.97;;;;;;;10.30;70.29;99260.72;361477;111;1960825;-72
2021/04/14 00:54:52;;;;;;;21.87;13.37;;;;;;;10.30;70.41;99254.50;352529;111;2952949;-72
2021/04/14 00:55:57;;;;;;;21.61;13.43;;;;;;;10.30;70.53;99255.32;334159;108;1961969;-72
2021/04/14 00:57:03;;;;;;;21.44;12.73;;;;;;;10.37;70.58;99252.58;347881;108;1962022;-72
2021/04/14 00:58:09;;;;;;;18.33;12.06;;;;;;;10.48;70.08;99245.70;366826;108;1962829;-73
2021/04/14 00:59:15;;;;;;;19.01;11.64;;;;;;;10.56;69.85;99248.97;366835;111;1962020;-72
2021/04/14 01:00:33;;;;;;;19.97;12.37;;;;;;;10.63;69.76;99254.31;366645;109;1963040;-72
2021/04/14 01:01:39;;;;;;;19.39;12.84;;;;;;;10.67;69.72;99247.45;363173;109;1965116;-72
2021/04/14 01:02:44;;;;;;;22.94;12.96;;;;;;;10.72;69.31;99244.11;366568;109;1962022;-72
2021/04/14 01:03:52;;;;;;;21.24;13.82;;;;;;;10.72;69.05;99242.23;366407;108;1962026;-74
2021/04/14 01:04:57;;;;;;;20.33;13.43;;;;;;;10.72;68.77;99241.41;344402;109;2357958;-72
2021/04/14 01:06:09;;;;;;;20.01;13.24;;;;;;;10.69;68.52;99239.97;340274;108;1961981;-72
2021/04/14 01:07:14;;;;;;;21.34;14.43;;;;;;;10.62;68.58;99238.34;367719;108;1961896;-72
2021/04/14 01:08:21;;;;;;;22.15;14.56;;;;;;;10.56;68.60;99237.34;368034;108;1962908;-72
2021/04/14 01:09:27;;;;;;;23.61;15.91;;;;;;;10.50;68.71;99238.19;328273;109;1998976;-71
2021/04/14 01:10:33;;;;;;;21.63;15.51;;;;;;;10.47;68.67;99234.05;367769;108;1961870;-72
2021/04/14 01:11:38;;;;;;;22.74;15.23;;;;;;;10.47;68.62;99235.92;368848;108;1961971;-71
2021/04/14 01:12:44;;;;;;;21.77;15.23;;;;;;;10.44;68.87;99236.36;366736;108;1961787;-73
2021/04/14 01:13:50;;;;;;;26.52;15.83;;;;;;;10.40;68.79;99227.02;368198;108;1962975;-72
2021/04/14 01:14:56;;;;;;;21.47;14.17;;;;;;;10.34;68.95;99229.53;306551;109;2205062;-72
2021/04/14 01:16:02;;;;;;;24.03;15.71;;;;;;;10.36;68.93;99231.20;364775;108;1961855;-73
2021/04/14 01:17:07;;;;;;;21.56;15.00;;;;;;;10.31;69.02;99229.97;367902;108;1960836;-72
2021/04/14 01:18:16;;;;;;;22.19;15.11;;;;;;;10.26;69.06;99224.35;367689;108;1961057;-73
2021/04/14 01:19:21;;;;;;;23.46;15.16;;;;;;;10.24;69.03;99231.01;362217;110;1961987;-72
2021/04/14 01:20:28;;;;;;;22.56;13.76;;;;;;;10.21;69.07;99229.56;364181;110;1961875;-72
2021/04/14 01:21:40;;;;;;;22.62;14.31;;;;;;;10.20;69.13;99230.63;363786;110;1962002;-72
2021/04/14 01:22:46;;;;;;;23.07;15.90;;;;;;;10.16;69.25;99232.11;335389;110;1961910;-72
2021/04/14 01:23:51;;;;;;;22.88;14.72;;;;;;;10.15;69.18;99230.43;362537;110;1961912;-72
2021/04/14 01:24:57;;;;;;;22.12;15.05;;;;;;;10.12;69.49;99239.78;362943;109;1961959;-71
2021/04/14 01:26:03;;;;;;;21.22;15.31;;;;;;;10.09;69.65;99236.69;364878;109;1961964;-72
2021/04/14 01:27:09;;;;;;;26.31;14.97;;;;;;;10.08;69.53;99230.47;363410;110;1961929;-73
2021/04/14 01:28:24;;;;;;;21.01;14.47;;;;;;;10.08;69.50;99229.62;351261;110;1962934;-72
2021/04/14 01:29:30;;;;;;;22.29;14.65;;;;;;;10.08;69.63;99235.02;362013;110;1961862;-72
2021/04/14 01:30:35;;;;;;;22.24;14.56;;;;;;;10.05;69.64;99238.14;364037;109;1963926;-72
2021/04/14 01:31:41;;;;;;;21.70;14.85;;;;;;;10.04;69.93;99234.62;366896;110;1961940;-72
2021/04/14 01:32:47;;;;;;;20.86;15.72;;;;;;;10.05;69.69;99230.05;362020;109;1963980;-72
2021/04/14 01:33:53;;;;;;;21.79;13.36;;;;;;;10.03;69.74;99243.77;344656;110;2945998;-72
2021/04/14 01:34:58;;;;;;;23.17;14.78;;;;;;;10.03;69.68;99238.37;333387;109;1961958;-72
2021/04/14 01:36:05;;;;;;;18.30;13.42;;;;;;;10.02;69.74;99228.60;359579;110;1962961;-71
2021/04/14 01:37:11;;;;;;;23.61;15.24;;;;;;;10.00;69.84;99241.50;363347;110;1962042;-72
2021/04/14 01:38:18;;;;;;;22.67;14.73;;;;;;;10.00;69.79;99243.34;362642;110;1961972;-73
2021/04/14 01:39:23;;;;;;;21.64;14.43;;;;;;;9.98;69.94;99235.48;363255;109;1962985;-72
2021/04/14 01:40:31;;;;;;;24.07;14.75;;;;;;;9.99;69.94;99241.70;363472;110;1962990;-73
2021/04/14 01:41:38;;;;;;;22.52;13.97;;;;;;;9.97;69.97;99232.98;339476;110;2394943;-73
2021/04/14 01:42:44;;;;;;;22.04;14.39;;;;;;;9.97;69.90;99235.69;362917;109;1962004;-72
2021/04/14 01:43:50;;;;;;;22.81;14.34;;;;;;;9.94;69.92;99239.63;364264;109;1961998;-72
2021/04/14 01:44:55;;;;;;;21.53;13.98;;;;;;;9.94;70.08;99238.81;360321;110;1964040;-71
2021/04/14 01:46:02;;;;;;;20.02;12.57;;;;;;;9.94;70.15;99236.94;354380;109;2929986;-71
2021/04/14 01:47:07;;;;;;;20.30;11.57;;;;;;;9.93;70.21;99237.17;356327;109;1961899;-73
2021/04/14 01:48:14;;;;;;;19.36;11.18;;;;;;;9.92;70.47;99236.31;363324;109;1961965;-72
2021/04/14 01:49:19;;;;;;;17.42;10.72;;;;;;;10.00;70.57;99241.50;362999;109;1964012;-72
2021/04/14 01:50:27;;;;;;;18.59;11.21;;;;;;;10.06;70.55;99232.55;362634;109;1961975;-72
2021/04/14 01:51:32;;;;;;;15.67;9.39;;;;;;;10.19;70.10;99236.22;330897;109;1963999;-72
2021/04/14 01:52:38;;;;;;;15.31;10.06;;;;;;;10.28;69.76;99232.28;363770;109;1961979;-72
2021/04/14 01:53:43;;;;;;;15.34;10.28;;;;;;;10.36;69.58;99231.20;363071;109;1961948;-73
2021/04/14 01:54:48;;;;;;;14.00;9.85;;;;;;;10.41;69.56;99243.02;364611;109;1962971;-72
2021/04/14 01:55:53;;;;;;;20.87;10.99;;;;;;;10.49;68.98;99233.84;363187;109;1963041;-73
2021/04/14 01:56:59;;;;;;;16.49;10.13;;;;;;;10.51;68.79;99229.06;364638;109;1962004;-72
2021/04/14 01:58:11;;;;;;;20.41;12.22;;;;;;;10.52;68.55;99228.83;363617;104;1960909;-71
2021/04/14 01:59:16;;;;;;;16.02;11.48;;;;;;;10.47;68.54;99230.52;332792;110;1962029;-72
2021/04/14 02:00:26;;;;;;;17.41;11.56;;;;;;;10.43;68.51;99226.61;362681;110;1963025;-73
2021/04/14 02:01:32;;;;;;;25.02;13.19;;;;;;;10.38;68.57;99229.13;362066;110;1962048;-71
2021/04/14 02:02:37;;;;;;;19.35;12.96;;;;;;;10.32;68.69;99233.52;362886;110;1964009;-72
2021/04/14 02:03:42;;;;;;;20.22;12.89;;;;;;;10.28;68.65;99229.58;362306;110;1962940;-72
2021/04/14 02:04:50;;;;;;;21.33;13.31;;;;;;;10.22;68.81;99225.02;364020;110;1962050;-72
2021/04/14 02:05:55;;;;;;;18.82;13.23;;;;;;;10.19;68.90;99226.27;344407;110;2266017;-72
2021/04/14 02:07:01;;;;;;;23.17;15.34;;;;;;;10.16;69.01;99218.61;351367;110;1961989;-73
2021/04/14 02:08:07;;;;;;;21.61;15.08;;;;;;;10.14;69.06;99220.69;362367;110;1962965;-72
2021/04/14 02:09:13;;;;;;;22.79;14.91;;;;;;;10.11;69.16;99213.84;362740;110;1961954;-72
2021/04/14 02:10:22;;;;;;;26.32;17.77;;;;;;;10.10;69.27;99219.45;333020;110;1962022;-72
2021/04/14 02:11:27;;;;;;;27.63;16.14;;;;;;;10.06;69.31;99216.36;363544;110;1961959;-72
2021/04/14 02:12:34;;;;;;;27.72;17.67;;;;;;;10.05;69.39;99220.08;363137;110;1961945;-74
2021/04/14 02:13:41;;;;;;;27.27;17.32;;;;;;;10.02;69.60;99214.29;311228;110;2138774;-72
2021/04/14 02:14:46;;;;;;;33.11;19.93;;;;;;;9.98;69.69;99221.99;364394;110;1960666;-72
2021/04/14 02:15:53;;;;;;;32.89;19.32;;;;;;;9.95;69.76;99213.48;364928;110;1960740;-73
2021/04/14 02:16:59;;;;;;;37.94;22.79;;;;;;;9.87;69.80;99206.44;337358;110;2454871;-72
2021/04/14 02:18:05;;;;;;;41.44;22.54;;;;;;;9.91;70.11;99221.17;361730;110;1960695;-72
2021/04/14 02:19:11;;;;;;;38.51;21.11;;;;;;;9.88;70.28;99218.91;364157;110;1961911;-72
2021/04/14 02:20:18;;;;;;;40.34;19.50;;;;;;;9.86;70.74;99218.28;363531;110;1963012;-72
2021/04/14 02:21:24;;;;;;;23.88;15.52;;;;;;;9.86;70.70;99212.89;325030;110;2632980;-71
2021/04/14 02:22:29;;;;;;;23.39;13.23;;;;;;;9.91;70.76;99221.17;324270;110;1962005;-72
2021/04/14 02:23:38;;;;;;;21.39;11.42;;;;;;;9.99;70.82;99215.55;334452;110;1962057;-72
2021/04/14 02:24:44;;;;;;;19.60;11.88;;;;;;;10.08;70.75;99214.28;329088;110;2558968;-72
2021/04/14 02:25:49;;;;;;;22.21;13.04;;;;;;;10.17;70.54;99205.94;323973;110;1967993;-73
2021/04/14 02:26:55;;;;;;;20.11;12.56;;;;;;;10.24;70.47;99202.17;360126;110;1962806;-72
2021/04/14 02:28:00;;;;;;;16.19;10.42;;;;;;;10.32;70.47;99203.83;363226;110;1963964;-72
2021/04/14 02:29:05;;;;;;;17.90;10.61;;;;;;;10.42;70.22;99209.56;363414;110;1962911;-73
2021/04/14 02:30:15;;;;;;;19.93;11.60;;;;;;;10.51;70.15;99207.45;362500;110;1961955;-72
2021/04/14 02:31:30;;;;;;;17.19;11.01;;;;;;;10.57;69.92;99203.88;363359;110;1962964;-73
2021/04/14 02:32:35;;;;;;;18.89;12.07;;;;;;;10.64;69.37;99210.08;358829;110;1964021;-72
2021/04/14 02:33:41;;;;;;;18.62;11.66;;;;;;;10.72;69.21;99217.91;362777;110;1962046;-72
2021/04/14 02:34:46;;;;;;;21.41;12.64;;;;;;;10.77;68.98;99215.39;365840;110;1962056;-72
2021/04/14 02:35:53;;;;;;;20.18;11.85;;;;;;;10.76;68.78;99202.09;362482;110;1961947;-72
2021/04/14 02:36:58;;;;;;;19.73;13.06;;;;;;;10.72;68.71;99212.52;362754;110;1961984;-72
2021/04/14 02:38:05;;;;;;;21.29;12.97;;;;;;;10.70;68.68;99216.48;332610;110;2489992;-72
2021/04/14 02:39:12;;;;;;;22.05;13.81;;;;;;;10.64;68.61;99225.43;362911;110;1962014;-72
2021/04/14 02:40:20;;;;;;;21.31;14.22;;;;;;;10.59;68.46;99217.18;302070;110;2195206;-72
2021/04/14 02:41:25;;;;;;;20.74;13.42;;;;;;;10.50;68.63;99214.70;363411;110;1964033;-71
2021/04/14 02:42:31;;;;;;;21.37;14.36;;;;;;;10.43;68.76;99218.52;365885;110;1962036;-72
2021/04/14 02:43:36;;;;;;;22.66;15.85;;;;;;;10.37;68.76;99213.95;362501;110;1962009;-73
2021/04/14 02:44:41;;;;;;;22.34;13.73;;;;;;;10.27;69.17;99215.27;363290;110;1961969;-72
2021/04/14 02:46:00;;;;;;;22.13;14.53;;;;;;;10.21;69.14;99207.15;363612;110;1962086;-73
2021/04/14 02:47:07;;;;;;;21.89;14.90;;;;;;;10.15;69.60;99213.41;370031;103;1960647;-71
2021/04/14 02:48:13;;;;;;;22.17;15.13;;;;;;;10.07;69.82;99204.51;331156;105;2746924;-72
2021/04/14 02:49:19;;;;;;;21.37;14.79;;;;;;;10.04;69.95;99202.24;368011;105;1963954;-72
2021/04/14 02:50:26;;;;;;;24.09;16.53;;;;;;;10.01;70.07;99201.85;378620;103;1961931;-72
2021/04/14 02:51:32;;;;;;;22.14;13.68;;;;;;;9.99;70.07;99204.75;373449;106;1964970;-72
2021/04/14 02:52:38;;;;;;;21.39;12.89;;;;;;;9.96;70.04;99205.18;324357;106;2827968;-73
2021/04/14 02:53:44;;;;;;;18.51;12.30;;;;;;;9.93;70.37;99202.91;340722;106;1964006;-72
2021/04/14 02:54:49;;;;;;;19.27;11.57;;;;;;;9.94;70.62;99195.64;373380;106;1962110;-73
2021/04/14 02:55:54;;;;;;;17.70;11.93;;;;;;;9.94;70.70;99196.47;374164;106;1960603;-72
2021/04/14 02:56:59;;;;;;;17.46;11.26;;;;;;;9.97;70.81;99197.91;374154;107;1960698;-73
2021/04/14 02:58:05;;;;;;;18.39;11.67;;;;;;;9.98;70.97;99196.89;368456;107;1960837;-74
2021/04/14 02:59:10;;;;;;;19.52;12.08;;;;;;;10.03;70.92;99202.44;370296;107;1960742;-72
2021/04/14 03:00:18;;;;;;;18.33;11.59;;;;;;;10.07;70.86;99212.60;370239;107;1960732;-72
2021/04/14 03:01:26;;;;;;;16.59;11.54;;;;;;;10.12;70.90;99217.37;336625;107;2538843;-72
2021/04/14 03:02:31;;;;;;;17.02;10.93;;;;;;;10.16;70.86;99220.45;370079;107;1960874;-72
2021/04/14 03:03:36;;;;;;;16.03;10.92;;;;;;;10.24;70.74;99217.51;369900;108;1960917;-72
2021/04/14 03:04:42;;;;;;;17.03;10.88;;;;;;;10.29;70.76;99225.83;369128;107;1960857;-72
2021/04/14 03:05:48;;;;;;;17.79;10.82;;;;;;;10.37;70.42;99225.58;370188;107;1961825;-72
2021/04/14 03:06:54;;;;;;;17.56;10.80;;;;;;;10.44;70.16;99220.16;340993;107;2479016;-72
2021/04/14 03:08:00;;;;;;;19.88;12.64;;;;;;;10.47;70.04;99225.13;347490;107;1960894;-72
2021/04/14 03:09:06;;;;;;;19.26;12.24;;;;;;;10.52;69.89;99222.60;371009;107;1960883;-72
2021/04/14 03:10:13;;;;;;;20.06;11.84;;;;;;;10.55;69.72;99216.77;369089;108;1960935;-72
2021/04/14 03:11:19;;;;;;;17.37;11.98;;;;;;;10.59;69.67;99223.41;370746;107;1960875;-73
2021/04/14 03:12:24;;;;;;;21.69;13.75;;;;;;;10.62;69.40;99217.56;307342;107;2198164;-72
2021/04/14 03:13:29;;;;;;;19.48;13.17;;;;;;;10.61;69.02;99220.47;334291;107;1961926;-72
2021/04/14 03:14:35;;;;;;;20.28;14.14;;;;;;;10.58;69.06;99220.91;359692;107;1962985;-73
2021/04/14 03:15:40;;;;;;;21.31;13.30;;;;;;;10.52;69.20;99225.30;369001;108;1961061;-73
2021/04/14 03:16:46;;;;;;;20.14;14.10;;;;;;;10.48;69.15;99218.70;371234;107;1963875;-73
2021/04/14 03:17:51;;;;;;;22.94;14.98;;;;;;;10.44;69.15;99225.56;369426;107;1960791;-72
2021/04/14 03:18:57;;;;;;;22.57;14.56;;;;;;;10.37;69.20;99220.17;370249;107;1961922;-72
2021/04/14 03:20:07;;;;;;;21.28;16.18;;;;;;;10.34;69.12;99228.71;368851;107;1960911;-72
2021/04/14 03:21:12;;;;;;;20.96;14.05;;;;;;;10.28;69.33;99229.58;369823;107;1961889;-72
2021/04/14 03:22:18;;;;;;;19.24;14.43;;;;;;;10.22;69.42;99228.54;324063;107;2745887;-73
2021/04/14 03:23:24;;;;;;;21.12;15.28;;;;;;;10.20;69.30;99225.22;362308;107;1961787;-72
2021/04/14 03:24:30;;;;;;;21.44;14.42;;;;;;;10.17;69.33;99228.35;371422;107;1960683;-72
2021/04/14 03:25:35;;;;;;;24.74;14.86;;;;;;;10.15;69.39;99224.21;370411;107;1961984;-72
2021/04/14 03:26:42;;;;;;;25.06;15.79;;;;;;;10.08;69.59;99222.38;369998;107;1961941;-72
2021/04/14 03:27:48;;;;;;;21.14;13.87;;;;;;;10.05;69.71;99222.77;313303;107;2165848;-72
2021/04/14 03:28:53;;;;;;;22.27;14.34;;;;;;;10.01;69.65;99218.86;345522;108;1962033;-72
2021/04/14 03:29:59;;;;;;;20.23;14.75;;;;;;;10.00;69.71;99214.52;367298;107;1960865;-72
2021/04/14 03:31:04;;;;;;;22.79;15.00;;;;;;;9.97;69.71;99222.19;371147;107;1960826;-72
2021/04/14 03:32:09;;;;;;;21.06;15.22;;;;;;;9.94;69.83;99217.23;370140;107;1960836;-73
2021/04/14 03:33:17;;;;;;;21.79;14.64;;;;;;;9.89;69.90;99213.28;371009;107;1961944;-72
2021/04/14 03:34:22;;;;;;;18.52;14.42;;;;;;;9.87;69.83;99215.39;305836;107;2230162;-72
2021/04/14 03:35:28;;;;;;;21.46;14.35;;;;;;;9.86;69.91;99216.41;334942;108;1961865;-72
2021/04/14 03:36:36;;;;;;;20.34;14.21;;;;;;;9.86;69.73;99216.41;370873;108;1960855;-72
2021/04/14 03:37:42;;;;;;;18.66;13.40;;;;;;;9.86;69.55;99210.19;337441;107;1961815;-73
2021/04/14 03:38:48;;;;;;;21.10;13.43;;;;;;;9.83;69.62;99214.14;365357;108;1961037;-72
2021/04/14 03:39:53;;;;;;;18.68;13.93;;;;;;;9.81;69.63;99210.82;369583;107;1960925;-73
2021/04/14 03:40:58;;;;;;;19.67;14.04;;;;;;;9.81;69.51;99213.52;369429;107;1960910;-73
2021/04/14 03:42:04;;;;;;;21.06;13.37;;;;;;;9.79;69.61;99212.08;362385;111;1960845;-71
2021/04/14 03:43:10;;;;;;;21.79;13.89;;;;;;;9.77;69.48;99215.00;354725;109;1961001;-72
2021/04/14 03:44:16;;;;;;;20.14;13.56;;;;;;;9.75;69.56;99219.77;334670;108;2909858;-72
2021/04/14 03:45:28;;;;;;;21.13;14.26;;;;;;;9.74;69.54;99226.22;351628;108;1961907;-72
2021/04/14 03:46:32;;;;;;;20.04;14.04;;;;;;;9.75;69.29;99219.77;367555;108;1962019;-73
2021/04/14 03:47:44;;;;;;;20.07;12.72;;;;;;;9.75;69.10;99216.25;372244;108;1961922;-72
2021/04/14 03:48:50;;;;;;;20.92;13.30;;;;;;;9.73;68.85;99207.53;369105;108;1961923;-73
2021/04/14 03:49:55;;;;;;;19.69;11.95;;;;;;;9.68;68.75;99214.41;334205;108;1964000;-73
2021/04/14 03:51:01;;;;;;;20.07;12.78;;;;;;;9.65;68.71;99206.72;365929;108;1962020;-72
2021/04/14 03:52:07;;;;;;;21.75;13.02;;;;;;;9.64;68.57;99218.55;369351;108;1961958;-72
2021/04/14 03:53:22;;;;;;;17.05;12.26;;;;;;;9.62;68.60;99217.93;368426;108;1961932;-72
2021/04/14 03:54:23;;;;;;;21.71;13.69;;;;;;;9.61;68.67;99220.86;367928;108;1962005;-72
2021/04/14 03:55:29;;;;;;;22.36;13.74;;;;;;;9.61;68.63;99218.16;332455;108;2621983;-73
2021/04/14 03:56:35;;;;;;;21.29;13.05;;;;;;;9.61;68.58;99218.16;367415;108;1964041;-72
2021/04/14 03:57:41;;;;;;;22.18;13.44;;;;;;;9.63;68.46;99219.61;369299;108;1963916;-73
2021/04/14 03:58:49;;;;;;;18.67;12.31;;;;;;;9.62;68.47;99225.20;369079;108;1961970;-73
2021/04/14 03:59:54;;;;;;;17.82;12.49;;;;;;;9.63;68.39;99218.75;369154;108;1961979;-72
2021/04/14 04:01:03;;;;;;;23.10;12.94;;;;;;;9.63;68.27;99225.00;369383;108;1961985;-73
2021/04/14 04:02:08;;;;;;;17.49;12.38;;;;;;;9.63;68.25;99226.84;337312;108;1961919;-72
2021/04/14 04:03:13;;;;;;;19.74;12.79;;;;;;;9.64;67.99;99223.13;351282;108;1961932;-73
2021/04/14 04:04:18;;;;;;;18.49;11.42;;;;;;;9.65;67.84;99227.47;369175;108;1962017;-72
2021/04/14 04:05:24;;;;;;;17.67;12.33;;;;;;;9.64;67.75;99223.95;368420;108;1961924;-73
2021/04/14 04:06:30;;;;;;;19.26;11.98;;;;;;;9.66;67.66;99221.05;367292;108;1962069;-73
2021/04/14 04:07:37;;;;;;;21.64;12.04;;;;;;;9.67;67.41;99225.39;368869;108;1963983;-73
2021/04/14 04:08:42;;;;;;;17.33;11.18;;;;;;;9.70;67.24;99230.36;329815;108;2230895;-73
2021/04/14 04:09:47;;;;;;;19.91;12.28;;;;;;;9.71;66.99;99228.48;354084;108;1961907;-73
2021/04/14 04:10:53;;;;;;;19.67;12.57;;;;;;;9.69;66.91;99224.14;369209;108;1961972;-73
2021/04/14 04:11:58;;;;;;;17.91;11.99;;;;;;;9.71;66.69;99231.19;371327;107;1963956;-73
2021/04/14 04:13:04;;;;;;;17.84;11.99;;;;;;;9.73;66.67;99237.20;373759;107;1961984;-73
2021/04/14 04:14:11;;;;;;;19.84;12.39;;;;;;;9.73;66.28;99229.11;372168;106;1964009;-73
2021/04/14 04:15:16;;;;;;;21.33;12.42;;;;;;;9.73;66.35;99235.33;335541;106;1988786;-72
2021/04/14 04:16:23;;;;;;;16.76;11.17;;;;;;;9.74;66.21;99228.91;372418;107;1961999;-73
2021/04/14 04:17:29;;;;;;;17.42;11.84;;;;;;;9.75;65.51;99218.95;372434;107;1961979;-73
2021/04/14 04:18:36;;;;;;;21.89;13.11;;;;;;;9.75;65.65;99227.86;330434;108;2641020;-73
2021/04/14 04:19:42;;;;;;;19.41;11.24;;;;;;;9.76;65.58;99229.51;358129;111;1961973;-73
2021/04/14 04:20:48;;;;;;;18.64;11.58;;;;;;;9.79;65.57;99230.95;367819;107;1961972;-73
2021/04/14 04:21:54;;;;;;;19.13;11.33;;;;;;;9.80;65.37;99224.54;364777;108;1961975;-73
2021/04/14 04:23:01;;;;;;;16.68;10.76;;;;;;;9.80;65.25;99228.06;313965;111;2782838;-73
2021/04/14 04:24:07;;;;;;;21.32;11.55;;;;;;;9.82;65.06;99223.28;367099;109;1962948;-73
2021/04/14 04:25:14;;;;;;;17.87;11.56;;;;;;;9.84;64.88;99232.00;366703;108;1965010;-74
2021/04/14 04:26:20;;;;;;;19.68;12.66;;;;;;;9.85;64.85;99225.55;339609;108;1963890;-73
2021/04/14 04:27:25;;;;;;;18.93;12.17;;;;;;;9.88;64.91;99227.83;366522;108;1962022;-73
2021/04/14 04:28:31;;;;;;;22.53;12.93;;;;;;;9.93;64.72;99220.98;364404;108;1961999;-73
2021/04/14 04:29:36;;;;;;;19.84;12.37;;;;;;;9.94;64.52;99223.45;365140;108;1962005;-73
2021/04/14 04:30:42;;;;;;;18.22;10.59;;;;;;;9.96;64.49;99217.85;368214;107;1961974;-73
2021/04/14 04:31:48;;;;;;;17.60;11.55;;;;;;;9.97;64.29;99222.19;323725;107;2763982;-73
2021/04/14 04:32:54;;;;;;;22.81;11.92;;;;;;;10.00;63.99;99227.16;347544;108;1961955;-74
2021/04/14 04:33:59;;;;;;;19.44;12.42;;;;;;;9.99;63.83;99220.12;369035;107;1962009;-73
2021/04/14 04:35:07;;;;;;;19.31;11.54;;;;;;;9.98;63.51;99219.30;369672;108;1960936;-73
2021/04/14 04:36:14;;;;;;;19.36;11.44;;;;;;;9.99;63.37;99214.72;366546;107;1964913;-73
2021/04/14 04:37:19;;;;;;;20.76;11.86;;;;;;;10.02;62.94;99219.69;369436;108;1961966;-73
2021/04/14 04:38:25;;;;;;;23.33;11.07;;;;;;;10.03;62.66;99215.94;369439;107;1962050;-74
2021/04/14 04:39:31;;;;;;;19.40;10.61;;;;;;;10.00;62.38;99213.67;368587;108;1962007;-73
2021/04/14 04:40:38;;;;;;;22.70;11.49;;;;;;;9.89;62.36;99202.49;367696;107;1961925;-74
2021/04/14 04:41:46;;;;;;;20.83;12.31;;;;;;;9.94;62.00;99212.66;369834;107;1962098;-73
2021/04/14 04:42:52;;;;;;;15.78;11.21;;;;;;;9.93;62.03;99215.58;344220;108;2354948;-73
2021/04/14 04:43:57;;;;;;;15.79;11.01;;;;;;;9.91;61.94;99218.48;354777;107;1960929;-73
2021/04/14 04:45:06;;;;;;;15.92;10.77;;;;;;;9.91;61.63;99221.17;370048;107;1960831;-73
2021/04/14 04:46:12;;;;;;;21.35;11.88;;;;;;;9.90;61.56;99216.84;367321;107;1960960;-74
2021/04/14 04:47:17;;;;;;;18.04;11.12;;;;;;;9.90;61.43;99219.53;370613;107;1960972;-73
2021/04/14 04:48:25;;;;;;;17.79;10.78;;;;;;;9.91;61.17;99210.39;354084;113;1960797;-73
2021/04/14 04:49:31;;;;;;;14.73;10.72;;;;;;;9.90;61.06;99222.23;314546;107;2149584;-73
2021/04/14 04:50:39;;;;;;;18.46;11.44;;;;;;;9.88;61.25;99217.03;367969;107;1961922;-73
2021/04/14 04:51:44;;;;;;;17.45;10.76;;;;;;;9.91;61.21;99218.48;372030;107;1961969;-73
2021/04/14 04:52:50;;;;;;;18.39;11.56;;;;;;;9.91;60.91;99219.30;340320;107;1966052;-74
2021/04/14 04:53:56;;;;;;;17.39;11.19;;;;;;;9.93;60.72;99215.58;359111;107;1963865;-74
2021/04/14 04:55:02;;;;;;;17.93;10.10;;;;;;;9.94;60.17;99218.05;368861;107;1961878;-73
2021/04/14 04:56:08;;;;;;;17.99;11.07;;;;;;;9.95;59.99;99218.88;366221;107;1961946;-73
2021/04/14 04:57:14;;;;;;;20.13;10.41;;;;;;;9.94;59.83;99228.02;325062;107;2740870;-73
2021/04/14 04:58:20;;;;;;;18.11;11.27;;;;;;;9.94;59.97;99228.02;350865;107;1961959;-73
2021/04/14 04:59:26;;;;;;;16.13;10.96;;;;;;;9.95;59.79;99225.13;369184;107;1962015;-73